Woodbine, Illinois
Current Conditions -  °F | °C
As of 2:55 AM on Saturday 22 Nov 2014 (Local Time) from KSFY Reporting Station
Haze Haze  
Wind Chill: 29°   Ceiling: 900
Heat Index: 33°   Visibility: 4mi
Dew Point: 32°   Wind: 5mph
Humidity: 95%   Direction: 170°S
Pressure: 30.06"   Gusts: NA
Location:  42.3424°N, 90.0324°W
Report Text: KSFY 220855Z AUTO 17004KT 4SM BR OVC009 01/00 A3006 RMK AO2 60006 T00051002
Loading
Personal Weather Stations






























Interactive Weather Map New forecast layout! Learn more

10-Day Weather Forecast

Advertisements
Track Severe Weather on mobile